Powell, Texas
Current Conditions -  °F | °C
As of 8:53 PM on Friday 21 Nov 2014 (Local Time) from KCRS Reporting Station
Overcast Overcast  
Wind Chill: 63°   Ceiling: 800
Heat Index: 63°   Visibility: 10mi
Dew Point: 60°   Wind: 13mph
Humidity: 90%   Direction: 130°SE
Pressure: 30.11"   Gusts: NA
Location:  32.12°N, 96.32°W
Report Text: KCRS 220253Z AUTO 13011KT 10SM OVC008 17/16 A3011 RMK AO2 SLP194 T01720156 51007
Loading
Personal Weather Stations






























Interactive Weather Map New forecast layout! Learn more

10-Day Weather Forecast

Advertisements
Track Severe Weather on mobile